createdAt,value
2023-03-08T00:03:23.166Z,98069.38
2023-03-08T00:08:24.844Z,98058.75
2023-03-08T00:13:26.464Z,98084.38
2023-03-08T00:18:28.201Z,98088.25
2023-03-08T00:23:29.828Z,98098.19
2023-03-08T00:28:31.979Z,98093.75
2023-03-08T00:33:34.802Z,98094.66
2023-03-08T00:38:36.755Z,98109.53
2023-03-08T00:43:38.686Z,98107.34
2023-03-08T00:48:41.072Z,98107.31
2023-03-08T00:53:43.118Z,98122.13
2023-03-08T00:58:44.764Z,98129.34
2023-03-08T01:03:46.958Z,98120.63
2023-03-08T01:08:48.688Z,98115.59
2023-03-08T01:13:51.546Z,98125.97
2023-03-08T01:18:54.018Z,98128.34
2023-03-08T01:23:56.034Z,98137.88
2023-03-08T01:28:58.560Z,98120.28
2023-03-08T01:34:00.796Z,98125.13
2023-03-08T01:39:02.484Z,98130.94
2023-03-08T01:44:04.397Z,98114.28
2023-03-08T01:49:27.258Z,98101.06
2023-03-08T01:54:34.359Z,98105.72
2023-03-08T01:59:36.515Z,98125.00
2023-03-08T02:04:41.044Z,98124.56
2023-03-08T02:09:47.929Z,98107.16
2023-03-08T02:14:50.366Z,98120.34
2023-03-08T02:19:57.601Z,98110.84
2023-03-08T02:24:59.309Z,98109.69
2023-03-08T02:30:01.703Z,98113.34
2023-03-08T02:35:04.761Z,98112.81
2023-03-08T02:40:08.747Z,98106.06
2023-03-08T02:45:10.884Z,98111.66
2023-03-08T02:50:13.056Z,98123.28
2023-03-08T02:55:14.859Z,98115.75
2023-03-08T03:00:17.811Z,98115.19
2023-03-08T03:05:19.661Z,98113.91
2023-03-08T03:10:21.362Z,98125.34
2023-03-08T03:15:23.230Z,98126.94
2023-03-08T03:20:28.712Z,98121.31
2023-03-08T03:25:30.374Z,98128.56
2023-03-08T03:30:32.161Z,98135.16
2023-03-08T03:35:34.747Z,98125.88
2023-03-08T03:40:36.502Z,98132.78
2023-03-08T03:45:39.345Z,98137.66
2023-03-08T03:50:41.057Z,98143.72
2023-03-08T03:55:47.798Z,98141.81
2023-03-08T04:00:49.555Z,98150.13
2023-03-08T04:06:16.332Z,98151.25
2023-03-08T04:11:22.484Z,98151.72
2023-03-08T04:16:30.932Z,98161.25
2023-03-08T04:21:35.896Z,98156.19
2023-03-08T04:26:38.005Z,98152.31
2023-03-08T04:31:39.768Z,98153.44
2023-03-08T04:36:45.642Z,98149.88
2023-03-08T04:41:48.746Z,98150.78
2023-03-08T04:46:57.831Z,98145.69
2023-03-08T04:52:10.213Z,98143.69
2023-03-08T04:57:14.012Z,98140.22
2023-03-08T05:02:16.506Z,98139.69
2023-03-08T05:07:20.054Z,98146.38
2023-03-08T05:12:23.767Z,98156.34
2023-03-08T05:17:29.835Z,98156.66
2023-03-08T05:22:31.622Z,98158.59
2023-03-08T05:27:35.266Z,98143.25
2023-03-08T05:32:38.196Z,98152.19
2023-03-08T05:37:40.437Z,98159.34
2023-03-08T05:42:42.124Z,98167.72
2023-03-08T05:47:46.113Z,98174.69
2023-03-08T05:52:47.831Z,98173.75
2023-03-08T05:57:54.480Z,98174.47
2023-03-08T06:02:59.808Z,98172.44
2023-03-08T06:08:02.032Z,98173.56
2023-03-08T06:13:04.493Z,98177.31
2023-03-08T06:18:06.399Z,98174.72
2023-03-08T06:23:08.614Z,98184.41
2023-03-08T06:28:11.165Z,98193.38
2023-03-08T06:33:20.631Z,98184.59
2023-03-08T06:38:22.322Z,98170.69
2023-03-08T06:43:24.047Z,98171.88
2023-03-08T06:48:25.746Z,98157.09
2023-03-08T06:53:28.062Z,98162.72
2023-03-08T06:58:36.697Z,98160.56
2023-03-08T07:03:38.552Z,98177.81
2023-03-08T07:08:40.989Z,98177.72
2023-03-08T07:13:43.225Z,98175.00
2023-03-08T07:18:45.190Z,98185.94
2023-03-08T07:23:46.803Z,98180.97
2023-03-08T07:28:50.437Z,98180.44
2023-03-08T07:33:52.125Z,98183.78
2023-03-08T07:38:53.740Z,98176.81
2023-03-08T07:43:55.332Z,98185.66
2023-03-08T07:48:59.170Z,98177.56
2023-03-08T07:54:00.788Z,98179.19
2023-03-08T07:59:02.437Z,98189.63
2023-03-08T08:04:04.596Z,98182.50
2023-03-08T08:09:07.303Z,98172.97
2023-03-08T08:14:09.437Z,98175.75
2023-03-08T08:19:12.388Z,98164.16
2023-03-08T08:24:14.682Z,98147.31
2023-03-08T08:29:16.411Z,98149.97
2023-03-08T08:34:18.216Z,98153.66
2023-03-08T08:39:19.902Z,98149.88
2023-03-08T08:44:21.611Z,98148.66
2023-03-08T08:49:23.257Z,98137.06
2023-03-08T08:54:24.899Z,98132.47
2023-03-08T08:59:26.511Z,98126.03
2023-03-08T09:04:28.287Z,98119.97
2023-03-08T09:09:29.950Z,98109.41
2023-03-08T09:14:31.565Z,98095.38
2023-03-08T09:19:33.260Z,98083.88
2023-03-08T09:24:34.897Z,98082.63
2023-03-08T09:29:38.026Z,98068.03
2023-03-08T09:34:39.727Z,98066.19
2023-03-08T09:39:41.348Z,98048.34
2023-03-08T09:45:16.938Z,98039.81
2023-03-08T09:50:33.872Z,98035.84
2023-03-08T09:55:41.636Z,98023.06
2023-03-08T10:00:44.343Z,98012.06
2023-03-08T10:06:11.384Z,98005.41
2023-03-08T10:11:52.026Z,98012.38
2023-03-08T10:16:58.112Z,98011.03
2023-03-08T10:22:08.196Z,98008.78
2023-03-08T10:27:28.632Z,98000.97
2023-03-08T10:32:30.275Z,98000.84
2023-03-08T10:37:33.728Z,97986.25
2023-03-08T10:42:36.133Z,97980.50
2023-03-08T10:47:38.858Z,97972.44
2023-03-08T10:52:40.611Z,97974.06
2023-03-08T10:57:49.442Z,97965.78
2023-03-08T11:03:10.495Z,97947.56
2023-03-08T11:08:21.200Z,97940.56
2023-03-08T11:13:28.864Z,97925.34
2023-03-08T11:18:39.318Z,97909.38
2023-03-08T11:23:56.921Z,97888.59
2023-03-08T11:29:14.759Z,97876.03
2023-03-08T11:35:00.616Z,97863.25
2023-03-08T11:40:19.690Z,97854.00
2023-03-08T11:45:50.251Z,97839.00
2023-03-08T11:51:15.519Z,97823.84
2023-03-08T11:56:42.531Z,97812.47
2023-03-08T12:01:56.707Z,97809.53
2023-03-08T12:07:02.884Z,97791.88
2023-03-08T12:12:20.639Z,97785.78
2023-03-08T12:17:30.834Z,97785.41
2023-03-08T12:22:41.752Z,97779.16
2023-03-08T12:27:50.117Z,97779.69
2023-03-08T12:32:56.402Z,97768.69
2023-03-08T12:38:29.702Z,97771.41
2023-03-08T12:43:34.542Z,97763.44
2023-03-08T12:48:41.177Z,97762.47
2023-03-08T12:53:57.143Z,97762.66
2023-03-08T12:59:22.983Z,97757.03
2023-03-08T13:04:41.761Z,97774.78
2023-03-08T13:09:47.409Z,97772.97
2023-03-08T13:15:18.717Z,97765.63
2023-03-08T13:20:24.355Z,97758.19
2023-03-08T13:25:35.289Z,97758.13
2023-03-08T13:30:52.358Z,97749.25
2023-03-08T13:36:21.535Z,97743.66
2023-03-08T13:41:37.105Z,97733.38
2023-03-08T13:46:42.640Z,97726.78
2023-03-08T13:51:47.961Z,97718.31
2023-03-08T13:56:54.097Z,97702.19
2023-03-08T14:01:56.646Z,97693.44
2023-03-08T14:07:00.196Z,97690.25
2023-03-08T14:12:07.109Z,97696.41
2023-03-08T14:17:19.441Z,97674.66
2023-03-08T14:22:37.731Z,97675.97
2023-03-08T14:27:42.897Z,97674.88
2023-03-08T14:33:01.493Z,97662.13
2023-03-08T14:38:04.019Z,97660.09
2023-03-08T14:43:07.223Z,97660.81
2023-03-08T14:48:23.954Z,97652.31
2023-03-08T14:53:32.117Z,97631.13
2023-03-08T14:58:38.073Z,97632.41
2023-03-08T15:03:39.666Z,97628.72
2023-03-08T15:08:41.480Z,97609.81
2023-03-08T15:13:45.020Z,97599.47
2023-03-08T15:18:46.688Z,97604.41
2023-03-08T15:23:49.257Z,97600.44
2023-03-08T15:28:50.936Z,97601.91
2023-03-08T15:33:52.583Z,97596.25
2023-03-08T15:38:54.231Z,97586.84
2023-03-08T15:43:55.834Z,97576.44
2023-03-08T15:48:57.690Z,97562.78
2023-03-08T15:54:00.160Z,97567.00
2023-03-08T15:59:02.234Z,97550.88
2023-03-08T16:04:03.885Z,97561.16
2023-03-08T16:09:05.516Z,97538.75
2023-03-08T16:14:07.138Z,97539.44
2023-03-08T16:19:08.745Z,97550.63
2023-03-08T16:24:11.590Z,97551.38
2023-03-08T16:29:13.209Z,97530.63
2023-03-08T16:34:14.974Z,97538.09
2023-03-08T16:39:16.643Z,97532.69
2023-03-08T16:44:27.622Z,97531.66
2023-03-08T16:49:29.295Z,97533.06
2023-03-08T16:54:31.162Z,97526.09
2023-03-08T16:59:32.870Z,97531.69
2023-03-08T17:04:34.502Z,97529.47
2023-03-08T17:09:37.096Z,97524.78
2023-03-08T17:14:38.698Z,97521.97
2023-03-08T17:19:41.137Z,97528.97
2023-03-08T17:24:42.974Z,97523.25
2023-03-08T17:29:44.655Z,97520.66
2023-03-08T17:34:46.262Z,97501.56
2023-03-08T17:39:48.064Z,97496.59
2023-03-08T17:44:49.684Z,97493.19
2023-03-08T17:49:51.293Z,97498.09
2023-03-08T17:54:54.464Z,97489.78
2023-03-08T17:59:56.103Z,97500.44
2023-03-08T18:04:57.714Z,97500.22
2023-03-08T18:09:59.479Z,97515.16
2023-03-08T18:15:01.937Z,97522.25
2023-03-08T18:20:05.587Z,97521.00
2023-03-08T18:25:08.069Z,97521.00
2023-03-08T18:30:12.260Z,97515.94
2023-03-08T18:35:13.909Z,97496.81
2023-03-08T18:40:15.606Z,97496.19
2023-03-08T18:45:18.363Z,97500.19
2023-03-08T18:50:20.451Z,97501.66
2023-03-08T18:55:22.121Z,97505.59
2023-03-08T19:00:24.083Z,97510.38
2023-03-08T19:05:25.774Z,97505.22
2023-03-08T19:10:27.434Z,97494.88
2023-03-08T19:15:29.062Z,97493.63
2023-03-08T19:20:30.784Z,97489.00
2023-03-08T19:25:34.192Z,97489.25
2023-03-08T19:30:35.840Z,97500.53
2023-03-08T19:35:37.520Z,97501.66
2023-03-08T19:40:43.324Z,97494.78
2023-03-08T19:45:49.025Z,97495.44
2023-03-08T19:50:50.664Z,97491.03
2023-03-08T19:55:55.156Z,97484.81
2023-03-08T20:01:05.378Z,97481.56
2023-03-08T20:06:07.370Z,97483.38
2023-03-08T20:11:08.987Z,97491.53
2023-03-08T20:16:10.703Z,97494.66
2023-03-08T20:21:12.308Z,97501.16
2023-03-08T20:26:14.136Z,97493.28
2023-03-08T20:31:16.520Z,97495.97
2023-03-08T20:36:18.264Z,97503.31
2023-03-08T20:41:21.386Z,97507.50
2023-03-08T20:46:32.873Z,97509.31
2023-03-08T20:51:36.376Z,97513.63
2023-03-08T20:56:37.998Z,97511.72
2023-03-08T21:01:42.004Z,97502.19
2023-03-08T21:06:43.729Z,97502.41
2023-03-08T21:11:45.589Z,97498.53
2023-03-08T21:16:47.837Z,97494.78
2023-03-08T21:21:51.139Z,97495.78
2023-03-08T21:26:52.740Z,97490.47
2023-03-08T21:31:54.792Z,97484.97
2023-03-08T21:36:56.698Z,97486.53
2023-03-08T21:41:58.825Z,97475.72
2023-03-08T21:47:00.499Z,97475.63
2023-03-08T21:52:02.750Z,97470.78
2023-03-08T21:57:04.354Z,97461.44
2023-03-08T22:02:06.045Z,97460.81
2023-03-08T22:07:07.732Z,97446.94
2023-03-08T22:12:09.744Z,97455.34
2023-03-08T22:17:11.406Z,97447.50
2023-03-08T22:22:12.996Z,97449.69
2023-03-08T22:27:14.700Z,97444.84
2023-03-08T22:32:16.403Z,97442.91
2023-03-08T22:37:18.084Z,97424.44
2023-03-08T22:42:19.828Z,97440.09
2023-03-08T22:47:21.471Z,97435.69
2023-03-08T22:52:23.447Z,97433.78
2023-03-08T22:57:25.140Z,97423.75
2023-03-08T23:02:28.504Z,97441.97
2023-03-08T23:07:30.617Z,97426.28
2023-03-08T23:12:32.237Z,97435.06
2023-03-08T23:17:34.085Z,97429.03
2023-03-08T23:22:35.687Z,97422.13
2023-03-08T23:27:37.327Z,97420.19
2023-03-08T23:32:39.550Z,97426.44
2023-03-08T23:37:41.441Z,97427.69
2023-03-08T23:42:43.111Z,97423.81
2023-03-08T23:47:44.721Z,97407.31
2023-03-08T23:52:46.325Z,97394.97
2023-03-08T23:57:47.997Z,97392.81
